createdAt,value
2023-02-03T00:03:31.085Z,7.63
2023-02-03T00:08:32.681Z,7.56
2023-02-03T00:13:35.069Z,7.58
2023-02-03T00:18:36.672Z,7.62
2023-02-03T00:23:38.061Z,7.53
2023-02-03T00:28:39.670Z,7.43
2023-02-03T00:33:41.041Z,7.45
2023-02-03T00:38:42.479Z,7.47
2023-02-03T00:43:44.024Z,7.40
2023-02-03T00:48:45.392Z,7.42
2023-02-03T00:53:47.857Z,7.45
2023-02-03T00:58:49.338Z,7.44
2023-02-03T01:03:50.784Z,7.47
2023-02-03T01:08:52.712Z,7.51
2023-02-03T01:13:56.007Z,7.49
2023-02-03T01:18:57.620Z,7.48
2023-02-03T01:24:00.720Z,7.42
2023-02-03T01:29:02.626Z,7.36
2023-02-03T01:34:04.020Z,7.38
2023-02-03T01:39:06.032Z,7.39
2023-02-03T01:44:32.294Z,7.44
2023-02-03T01:49:36.610Z,7.35
2023-02-03T01:54:43.737Z,7.35
2023-02-03T01:59:46.039Z,7.28
2023-02-03T02:05:08.108Z,7.19
2023-02-03T02:10:10.253Z,7.09
2023-02-03T02:15:11.743Z,6.99
2023-02-03T02:21:00.323Z,6.94
2023-02-03T02:26:15.814Z,6.89
2023-02-03T02:31:36.247Z,6.95
2023-02-03T02:36:43.743Z,7.01
2023-02-03T02:42:05.237Z,6.99
2023-02-03T02:47:16.352Z,7.00
2023-02-03T02:52:18.913Z,7.04
2023-02-03T02:57:24.164Z,7.09
2023-02-03T03:02:36.646Z,7.17
2023-02-03T03:07:48.557Z,7.17
2023-02-03T03:12:54.809Z,7.20
2023-02-03T03:18:13.281Z,7.21
2023-02-03T03:23:28.939Z,7.24
2023-02-03T03:28:42.329Z,7.27
2023-02-03T03:33:44.301Z,7.32
2023-02-03T03:38:53.662Z,7.34
2023-02-03T03:44:00.828Z,7.36
2023-02-03T03:49:05.377Z,7.33
2023-02-03T03:54:14.743Z,7.35
2023-02-03T03:59:19.215Z,7.38
2023-02-03T04:04:24.233Z,7.45
2023-02-03T04:09:25.863Z,7.46
2023-02-03T04:14:30.184Z,7.50
2023-02-03T04:19:31.674Z,7.53
2023-02-03T04:24:33.091Z,7.47
2023-02-03T04:29:34.499Z,7.38
2023-02-03T04:34:35.886Z,7.31
2023-02-03T04:39:37.439Z,7.28
2023-02-03T04:44:38.869Z,7.26
2023-02-03T04:49:40.313Z,7.20
2023-02-03T04:54:41.831Z,7.17
2023-02-03T04:59:43.245Z,7.15
2023-02-03T05:04:44.667Z,7.13
2023-02-03T05:09:46.384Z,7.18
2023-02-03T05:14:47.822Z,7.24
2023-02-03T05:19:49.228Z,7.28
2023-02-03T05:24:50.636Z,7.33
2023-02-03T05:29:52.113Z,7.37
2023-02-03T05:34:53.499Z,7.43
2023-02-03T05:40:14.896Z,7.44
2023-02-03T05:45:17.071Z,7.39
2023-02-03T05:50:18.544Z,7.40
2023-02-03T05:55:19.936Z,7.39
2023-02-03T06:00:22.245Z,7.41
2023-02-03T06:05:24.966Z,7.41
2023-02-03T06:10:27.306Z,7.40
2023-02-03T06:15:28.923Z,7.39
2023-02-03T06:20:30.701Z,7.38
2023-02-03T06:25:32.793Z,7.33
2023-02-03T06:30:34.393Z,7.29
2023-02-03T06:35:36.404Z,7.29
2023-02-03T06:40:37.841Z,7.33
2023-02-03T06:45:39.249Z,7.32
2023-02-03T06:50:41.053Z,7.31
2023-02-03T06:55:42.485Z,7.26
2023-02-03T07:00:43.904Z,7.23
2023-02-03T07:05:45.349Z,7.15
2023-02-03T07:10:46.738Z,7.13
2023-02-03T07:15:48.194Z,7.07
2023-02-03T07:20:49.768Z,7.06
2023-02-03T07:25:51.146Z,7.11
2023-02-03T07:30:52.648Z,7.13
2023-02-03T07:35:54.935Z,7.15
2023-02-03T07:40:56.649Z,7.23
2023-02-03T07:45:58.196Z,7.26
2023-02-03T07:50:59.661Z,7.33
2023-02-03T07:56:02.645Z,7.35
2023-02-03T08:01:14.388Z,7.41
2023-02-03T08:06:16.382Z,7.37
2023-02-03T08:11:18.287Z,7.42
2023-02-03T08:16:19.809Z,7.47
2023-02-03T08:21:21.276Z,7.50
2023-02-03T08:26:23.098Z,7.54
2023-02-03T08:31:24.702Z,7.57
2023-02-03T08:36:26.210Z,7.67
2023-02-03T08:41:27.761Z,7.69
2023-02-03T08:46:29.221Z,7.71
2023-02-03T08:51:30.765Z,7.62
2023-02-03T08:56:34.079Z,7.67
2023-02-03T09:01:35.530Z,7.70
2023-02-03T09:06:37.347Z,7.73
2023-02-03T09:11:40.802Z,7.80
2023-02-03T09:16:42.339Z,8.21
2023-02-03T09:21:45.967Z,8.31
2023-02-03T09:26:48.693Z,8.33
2023-02-03T09:31:53.792Z,8.40
2023-02-03T09:36:55.210Z,8.25
2023-02-03T09:42:34.934Z,8.22
2023-02-03T09:47:42.161Z,8.23
2023-02-03T09:52:44.300Z,8.23
2023-02-03T09:58:03.599Z,8.55
2023-02-03T10:03:12.183Z,8.62
2023-02-03T10:08:19.514Z,8.64
2023-02-03T10:13:37.262Z,8.60
2023-02-03T10:18:45.983Z,8.64
2023-02-03T10:23:48.934Z,8.60
2023-02-03T10:28:58.722Z,8.70
2023-02-03T10:34:08.325Z,8.71
2023-02-03T10:39:21.876Z,8.74
2023-02-03T10:44:30.926Z,8.78
2023-02-03T10:49:32.463Z,8.80
2023-02-03T10:54:35.858Z,8.74
2023-02-03T10:59:42.450Z,8.63
2023-02-03T11:04:43.853Z,8.61
2023-02-03T11:09:45.259Z,8.66
2023-02-03T11:14:52.068Z,8.60
2023-02-03T11:19:56.220Z,8.38
2023-02-03T11:24:59.217Z,8.37
2023-02-03T11:30:14.749Z,8.41
2023-02-03T11:35:23.595Z,8.36
2023-02-03T11:40:27.713Z,8.46
2023-02-03T11:45:29.677Z,8.56
2023-02-03T11:50:46.541Z,8.55
2023-02-03T11:56:14.856Z,8.70
2023-02-03T12:01:18.985Z,8.85
2023-02-03T12:06:23.346Z,8.84
2023-02-03T12:11:51.033Z,8.75
2023-02-03T12:17:08.113Z,8.90
2023-02-03T12:22:29.532Z,9.10
2023-02-03T12:27:58.365Z,9.20
2023-02-03T12:33:28.905Z,9.26
2023-02-03T12:38:30.210Z,9.37
2023-02-03T12:43:41.935Z,9.38
2023-02-03T12:49:04.996Z,9.44
2023-02-03T12:54:31.051Z,9.46
2023-02-03T12:59:34.362Z,9.46
2023-02-03T13:04:47.386Z,9.61
2023-02-03T13:10:05.643Z,9.78
2023-02-03T13:15:22.317Z,10.02
2023-02-03T13:20:27.098Z,10.14
2023-02-03T13:25:50.399Z,10.08
2023-02-03T13:31:20.436Z,10.00
2023-02-03T13:36:51.555Z,9.95
2023-02-03T13:42:16.570Z,9.81
2023-02-03T13:47:24.714Z,9.78
2023-02-03T13:52:36.369Z,9.79
2023-02-03T13:57:38.720Z,9.72
2023-02-03T14:02:53.232Z,9.69
2023-02-03T14:07:54.798Z,9.66
2023-02-03T14:12:59.596Z,9.62
2023-02-03T14:18:31.441Z,9.62
2023-02-03T14:23:42.793Z,9.60
2023-02-03T14:28:46.444Z,9.59
2023-02-03T14:33:47.778Z,9.55
2023-02-03T14:38:50.221Z,9.46
2023-02-03T14:44:16.047Z,9.38
2023-02-03T14:49:37.761Z,9.33
2023-02-03T14:55:16.215Z,9.35
2023-02-03T15:00:21.426Z,9.31
2023-02-03T15:05:24.243Z,9.30
2023-02-03T15:10:38.602Z,9.28
2023-02-03T15:15:40.699Z,9.29
2023-02-03T15:20:47.001Z,9.29
2023-02-03T15:26:03.793Z,9.28
2023-02-03T15:31:17.648Z,9.27
2023-02-03T15:36:24.130Z,9.22
2023-02-03T15:41:26.528Z,9.24
2023-02-03T15:46:38.497Z,9.19
2023-02-03T15:51:51.811Z,9.15
2023-02-03T15:57:02.885Z,9.17
2023-02-03T16:02:19.446Z,9.15
2023-02-03T16:07:25.048Z,9.12
2023-02-03T16:12:31.673Z,9.11
2023-02-03T16:17:36.629Z,9.10
2023-02-03T16:22:39.890Z,9.09
2023-02-03T16:27:45.440Z,9.09
2023-02-03T16:33:27.159Z,9.09
2023-02-03T16:38:47.105Z,9.07
2023-02-03T16:44:07.083Z,9.06
2023-02-03T16:49:27.035Z,9.05
2023-02-03T16:54:28.499Z,9.01
2023-02-03T16:59:29.934Z,8.98
2023-02-03T17:04:31.371Z,8.97
2023-02-03T17:09:35.807Z,8.98
2023-02-03T17:14:37.216Z,8.97
2023-02-03T17:19:38.609Z,9.01
2023-02-03T17:24:40.024Z,9.02
2023-02-03T17:29:41.540Z,9.03
2023-02-03T17:34:43.803Z,9.06
2023-02-03T17:55:42.161Z,9.09
2023-02-03T18:00:43.552Z,9.05
2023-02-03T18:05:52.093Z,9.05
2023-02-03T18:10:53.532Z,9.01
2023-02-03T18:15:58.117Z,9.04
2023-02-03T18:20:59.505Z,9.07
2023-02-03T18:26:00.934Z,9.06
2023-02-03T18:37:24.677Z,9.00
2023-02-03T18:42:26.116Z,9.01
2023-02-03T18:47:27.621Z,8.98
2023-02-03T18:52:29.106Z,9.02
2023-02-03T18:57:30.579Z,9.01
2023-02-03T19:02:32.197Z,9.00
2023-02-03T19:07:33.644Z,9.03
2023-02-03T19:12:35.076Z,9.05
2023-02-03T19:17:37.153Z,9.03
2023-02-03T19:22:38.735Z,9.04
2023-02-03T19:27:40.163Z,9.05
2023-02-03T19:32:41.594Z,9.05
2023-02-03T19:37:43.045Z,9.06
2023-02-03T19:42:44.438Z,8.96
2023-02-03T19:47:45.844Z,8.91
2023-02-03T19:52:48.590Z,8.88
2023-02-03T19:57:50.058Z,8.85
2023-02-03T20:02:51.460Z,8.75
2023-02-03T20:07:53.221Z,8.70
2023-02-03T20:12:55.227Z,8.71
2023-02-03T20:17:56.685Z,8.57
2023-02-03T20:22:58.428Z,8.48
2023-02-03T20:28:02.461Z,8.49
2023-02-03T20:33:04.775Z,8.52
2023-02-03T20:38:06.293Z,8.53
2023-02-03T20:43:20.279Z,8.58
2023-02-03T20:48:25.431Z,8.58
2023-02-03T20:53:27.002Z,8.54
2023-02-03T20:58:32.508Z,8.52
2023-02-03T21:03:53.668Z,8.49
2023-02-03T21:09:01.755Z,8.49
2023-02-03T21:14:06.388Z,8.50
2023-02-03T21:19:14.696Z,8.36
2023-02-03T21:24:31.962Z,8.31
2023-02-03T21:29:34.387Z,8.24
2023-02-03T21:34:37.527Z,8.30
2023-02-03T21:39:38.937Z,8.33
2023-02-03T21:44:40.487Z,8.38
2023-02-03T21:49:41.946Z,8.37
2023-02-03T21:54:44.421Z,8.37
2023-02-03T21:59:47.017Z,8.37
2023-02-03T22:04:48.398Z,8.32
2023-02-03T22:09:51.485Z,8.33
2023-02-03T22:14:52.910Z,8.33
2023-02-03T22:19:54.334Z,8.33
2023-02-03T22:24:55.724Z,8.33
2023-02-03T22:29:57.120Z,8.33
2023-02-03T22:34:58.583Z,8.36
2023-02-03T22:40:00.214Z,8.34
2023-02-03T22:45:01.660Z,8.37
2023-02-03T22:50:04.722Z,8.36
2023-02-03T22:55:07.992Z,8.37
2023-02-03T23:00:11.013Z,8.43
2023-02-03T23:05:12.475Z,8.46
2023-02-03T23:10:18.058Z,8.43
2023-02-03T23:15:19.572Z,8.48
2023-02-03T23:20:21.728Z,8.52
2023-02-03T23:25:23.263Z,8.51
2023-02-03T23:30:24.667Z,8.51
2023-02-03T23:35:44.632Z,8.53
2023-02-03T23:40:46.262Z,8.53
2023-02-03T23:45:47.780Z,8.51
2023-02-03T23:50:49.313Z,8.51
2023-02-03T23:55:50.739Z,8.42
